createdAt,value
2023-04-22T00:00:21.894Z,-85
2023-04-22T00:02:55.366Z,-85
2023-04-22T00:05:27.929Z,-85
2023-04-22T00:07:59.552Z,-85
2023-04-22T00:10:28.616Z,-85
2023-04-22T00:12:57.468Z,-85
2023-04-22T00:15:28.180Z,-85
2023-04-22T00:17:57.235Z,-85
2023-04-22T00:20:46.810Z,-84
2023-04-22T00:23:16.066Z,-85
2023-04-22T00:25:45.103Z,-84
2023-04-22T00:28:13.654Z,-85
2023-04-22T00:30:42.477Z,-85
2023-04-22T00:33:19.339Z,-85
2023-04-22T00:35:49.669Z,-85
2023-04-22T00:38:18.539Z,-85
2023-04-22T00:40:47.395Z,-85
2023-04-22T00:43:17.701Z,-85
2023-04-22T00:45:47.014Z,-85
2023-04-22T00:48:16.328Z,-85
2023-04-22T00:50:45.173Z,-85
2023-04-22T00:53:15.377Z,-85
2023-04-22T00:55:44.239Z,-85
2023-04-22T00:58:12.829Z,-86
2023-04-22T01:00:41.636Z,-85
2023-04-22T01:03:12.049Z,-85
2023-04-22T01:05:42.345Z,-85
2023-04-22T01:08:13.927Z,-84
2023-04-22T01:10:44.762Z,-84
2023-04-22T01:13:13.195Z,-86
2023-04-22T01:15:41.912Z,-86
2023-04-22T01:18:12.785Z,-85
2023-04-22T01:20:42.095Z,-84
2023-04-22T01:23:20.394Z,-85
2023-04-22T01:25:50.125Z,-85
2023-04-22T01:28:19.183Z,-86
2023-04-22T01:30:50.003Z,-86
2023-04-22T01:33:19.147Z,-86
2023-04-22T01:35:47.991Z,-85
2023-04-22T01:38:18.360Z,-85
2023-04-22T01:40:47.243Z,-86
2023-04-22T01:43:16.054Z,-85
2023-04-22T01:45:44.813Z,-85
2023-04-22T01:48:13.746Z,-85
2023-04-22T01:50:42.449Z,-86
2023-04-22T01:53:12.052Z,-84
2023-04-22T01:59:26.967Z,-85
2023-04-22T02:01:55.613Z,-85
2023-04-22T02:04:24.732Z,-85
2023-04-22T02:06:53.599Z,-85
2023-04-22T02:09:23.940Z,-85
2023-04-22T02:11:52.955Z,-85
2023-04-22T02:18:06.682Z,-85
2023-04-22T02:20:49.513Z,-84
2023-04-22T02:23:20.386Z,-85
2023-04-22T02:25:52.112Z,-85
2023-04-22T02:28:21.662Z,-85
2023-04-22T02:30:50.731Z,-84
2023-04-22T02:33:19.724Z,-84
2023-04-22T02:35:50.013Z,-84
2023-04-22T02:38:18.742Z,-84
2023-04-22T02:40:47.691Z,-84
2023-04-22T02:43:16.129Z,-84
2023-04-22T02:45:44.772Z,-84
2023-04-22T02:48:13.622Z,-83
2023-04-22T02:50:42.077Z,-84
2023-04-22T02:56:58.194Z,-85
2023-04-22T02:59:26.898Z,-85
2023-04-22T03:01:55.527Z,-84
2023-04-22T03:04:25.883Z,-84
2023-04-22T03:06:54.640Z,-85
2023-04-22T03:09:23.706Z,-84
2023-04-22T03:11:52.472Z,-85
2023-04-22T03:14:24.440Z,-84
2023-04-22T03:16:53.038Z,-84
2023-04-22T03:19:21.771Z,-85
2023-04-22T03:21:50.398Z,-85
2023-04-22T03:24:18.943Z,-84
2023-04-22T03:26:47.615Z,-85
2023-04-22T03:29:16.120Z,-84
2023-04-22T03:31:46.570Z,-85
2023-04-22T03:34:15.098Z,-84
2023-04-22T03:36:44.374Z,-85
2023-04-22T03:39:13.105Z,-83
2023-04-22T03:41:41.729Z,-83
2023-04-22T03:44:10.675Z,-84
2023-04-22T03:46:39.287Z,-83
2023-04-22T03:49:10.183Z,-84
2023-04-22T03:51:38.907Z,-85
2023-04-22T03:54:07.437Z,-85
2023-04-22T03:56:36.890Z,-85
2023-04-22T03:59:05.632Z,-85
2023-04-22T04:01:34.379Z,-85
2023-04-22T04:04:03.693Z,-85
2023-04-22T04:06:34.158Z,-85
2023-04-22T04:09:03.915Z,-84
2023-04-22T04:11:32.633Z,-84
2023-04-22T04:14:01.149Z,-85
2023-04-22T04:19:27.161Z,-84
2023-04-22T04:21:57.354Z,-85
2023-04-22T04:24:25.955Z,-85
2023-04-22T04:26:55.457Z,-84
2023-04-22T04:29:23.981Z,-84
2023-04-22T04:31:52.596Z,-83
2023-04-22T04:34:21.447Z,-84
2023-04-22T04:36:49.968Z,-85
2023-04-22T04:39:20.632Z,-85
2023-04-22T04:53:45.742Z,-85
2023-04-22T04:56:17.167Z,-85
2023-04-22T05:01:48.311Z,-85
2023-04-22T05:04:17.334Z,-85
2023-04-22T05:06:46.939Z,-85
2023-04-22T05:09:15.531Z,-85
2023-04-22T05:11:45.608Z,-85
2023-04-22T05:14:14.401Z,-85
2023-04-22T05:16:44.024Z,-85
2023-04-22T05:19:14.799Z,-85
2023-04-22T05:21:44.313Z,-85
2023-04-22T05:24:13.492Z,-85
2023-04-22T05:26:44.375Z,-85
2023-04-22T05:29:13.434Z,-86
2023-04-22T05:31:44.493Z,-85
2023-04-22T05:34:13.299Z,-84
2023-04-22T05:36:45.996Z,-85
2023-04-22T05:39:16.102Z,-85
2023-04-22T05:41:47.183Z,-85
2023-04-22T05:44:21.331Z,-85
2023-04-22T05:46:50.569Z,-85
2023-04-22T05:49:19.402Z,-84
2023-04-22T05:51:50.007Z,-85
2023-04-22T05:54:19.982Z,-85
2023-04-22T05:56:51.220Z,-85
2023-04-22T05:59:21.801Z,-85
2023-04-22T06:01:51.256Z,-85
2023-04-22T06:04:21.054Z,-85
2023-04-22T06:06:50.027Z,-84
2023-04-22T06:09:18.593Z,-85
2023-04-22T06:11:47.120Z,-85
2023-04-22T06:14:17.229Z,-85
2023-04-22T06:16:45.931Z,-84
2023-04-22T06:19:14.697Z,-85
2023-04-22T06:21:44.154Z,-85
2023-04-22T06:24:13.077Z,-85
2023-04-22T06:26:42.328Z,-85
2023-04-22T06:29:11.396Z,-85
2023-04-22T06:31:41.530Z,-85
2023-04-22T06:34:10.376Z,-85
2023-04-22T06:36:38.980Z,-85
2023-04-22T06:39:07.659Z,-84
2023-04-22T06:41:42.041Z,-85
2023-04-22T06:44:11.329Z,-85
2023-04-22T06:46:42.178Z,-86
2023-04-22T06:49:10.923Z,-85
2023-04-22T06:51:40.485Z,-85
2023-04-22T06:54:09.475Z,-85
2023-04-22T06:56:38.287Z,-85
2023-04-22T06:59:07.813Z,-85
2023-04-22T07:01:36.681Z,-85
2023-04-22T07:04:08.555Z,-85
2023-04-22T07:06:37.228Z,-85
2023-04-22T07:09:06.894Z,-85
2023-04-22T07:11:40.142Z,-84
2023-04-22T07:14:08.823Z,-85
2023-04-22T07:16:39.161Z,-85
2023-04-22T07:19:09.769Z,-85
2023-04-22T07:21:38.625Z,-84
2023-04-22T07:24:12.083Z,-85
2023-04-22T07:26:42.164Z,-85
2023-04-22T07:29:12.971Z,-85
2023-04-22T07:31:41.820Z,-85
2023-04-22T07:34:12.856Z,-86
2023-04-22T07:36:41.462Z,-85
2023-04-22T07:39:10.822Z,-85
2023-04-22T07:41:39.375Z,-85
2023-04-22T07:44:07.960Z,-85
2023-04-22T07:46:36.805Z,-85
2023-04-22T07:49:06.274Z,-85
2023-04-22T07:51:37.445Z,-85
2023-04-22T07:54:06.746Z,-87
2023-04-22T07:56:36.439Z,-87
2023-04-22T07:59:07.287Z,-87
2023-04-22T08:01:36.751Z,-87
2023-04-22T08:04:06.480Z,-87
2023-04-22T08:06:39.714Z,-87
2023-04-22T08:09:10.721Z,-87
2023-04-22T08:11:41.247Z,-87
2023-04-22T08:14:10.685Z,-87
2023-04-22T08:16:40.355Z,-86
2023-04-22T08:19:13.222Z,-86
2023-04-22T08:21:49.165Z,-87
2023-04-22T08:24:19.566Z,-87
2023-04-22T08:26:48.481Z,-88
2023-04-22T08:29:18.552Z,-88
2023-04-22T08:31:51.380Z,-87
2023-04-22T08:34:20.157Z,-87
2023-04-22T08:36:55.560Z,-89
2023-04-22T08:39:24.824Z,-85
2023-04-22T08:42:08.366Z,-85
2023-04-22T08:44:43.172Z,-85
2023-04-22T08:47:15.708Z,-84
2023-04-22T08:49:45.254Z,-84
2023-04-22T08:52:16.468Z,-84
2023-04-22T08:54:46.335Z,-85
2023-04-22T08:57:17.354Z,-84
2023-04-22T08:59:51.507Z,-86
2023-04-22T09:02:24.421Z,-85
2023-04-22T09:04:55.010Z,-84
2023-04-22T09:07:33.856Z,-85
2023-04-22T09:10:04.377Z,-84
2023-04-22T09:12:36.378Z,-85
2023-04-22T09:15:06.215Z,-85
2023-04-22T09:17:38.738Z,-85
2023-04-22T09:20:10.060Z,-84
2023-04-22T09:22:47.295Z,-84
2023-04-22T09:25:21.434Z,-85
2023-04-22T09:27:52.694Z,-84
2023-04-22T09:30:28.730Z,-84
2023-04-22T09:32:59.434Z,-84
2023-04-22T09:35:30.413Z,-84
2023-04-22T09:38:03.316Z,-84
2023-04-22T09:40:34.763Z,-85
2023-04-22T09:43:07.373Z,-84
2023-04-22T09:45:39.067Z,-84
2023-04-22T09:48:12.275Z,-85
2023-04-22T09:50:46.762Z,-85
2023-04-22T09:53:20.972Z,-85
2023-04-22T09:55:53.313Z,-85
2023-04-22T09:58:36.793Z,-86
2023-04-22T10:01:25.746Z,-85
2023-04-22T10:06:45.649Z,-85
2023-04-22T10:09:23.830Z,-85
2023-04-22T10:11:58.215Z,-85
2023-04-22T10:14:27.890Z,-85
2023-04-22T10:17:02.897Z,-84
2023-04-22T10:22:13.419Z,-85
2023-04-22T10:24:45.229Z,-84
2023-04-22T10:27:15.880Z,-85
2023-04-22T10:29:44.811Z,-85
2023-04-22T10:32:28.013Z,-83
2023-04-22T10:35:16.571Z,-83
2023-04-22T10:37:47.898Z,-85
2023-04-22T10:40:21.098Z,-84
2023-04-22T10:42:56.005Z,-84
2023-04-22T10:45:30.065Z,-84
2023-04-22T10:48:06.758Z,-85
2023-04-22T10:50:36.215Z,-84
2023-04-22T10:53:40.788Z,-85
2023-04-22T10:56:19.456Z,-85
2023-04-22T10:58:47.966Z,-85
2023-04-22T11:01:17.214Z,-85
2023-04-22T11:03:46.315Z,-84
2023-04-22T11:06:17.776Z,-84
2023-04-22T11:08:51.333Z,-84
2023-04-22T11:11:20.986Z,-84
2023-04-22T11:13:52.043Z,-84
2023-04-22T11:16:23.946Z,-84
2023-04-22T11:18:53.253Z,-85
2023-04-22T11:21:24.195Z,-83
2023-04-22T11:23:54.922Z,-84
2023-04-22T11:26:36.478Z,-84
2023-04-22T11:29:05.078Z,-84
2023-04-22T11:31:36.971Z,-85
2023-04-22T11:34:10.873Z,-85
2023-04-22T11:36:39.710Z,-85
2023-04-22T11:39:15.233Z,-85
2023-04-22T11:41:44.436Z,-85
2023-04-22T11:44:16.269Z,-85
2023-04-22T11:46:46.452Z,-85
2023-04-22T11:49:19.780Z,-85
2023-04-22T11:51:57.261Z,-85
2023-04-22T11:54:37.500Z,-85
2023-04-22T11:57:12.238Z,-85
2023-04-22T11:59:41.330Z,-84
2023-04-22T12:02:11.016Z,-85
2023-04-22T12:04:41.254Z,-84
2023-04-22T12:07:10.977Z,-84
2023-04-22T12:09:41.822Z,-84
2023-04-22T12:12:11.123Z,-85
2023-04-22T12:14:39.878Z,-85
2023-04-22T12:17:12.375Z,-85
2023-04-22T12:19:42.040Z,-84
2023-04-22T12:22:10.574Z,-85
2023-04-22T12:24:46.213Z,-84
2023-04-22T12:27:14.848Z,-85
2023-04-22T12:29:54.386Z,-84
2023-04-22T12:32:25.076Z,-85
2023-04-22T12:34:53.733Z,-85
2023-04-22T12:37:24.389Z,-83
2023-04-22T12:39:55.358Z,-84
2023-04-22T12:42:23.878Z,-85
2023-04-22T12:44:55.357Z,-85
2023-04-22T12:47:24.833Z,-84
2023-04-22T12:49:53.387Z,-84
2023-04-22T12:52:22.122Z,-84
2023-04-22T12:54:53.387Z,-84
2023-04-22T12:57:24.299Z,-83
2023-04-22T12:59:52.963Z,-83
2023-04-22T13:02:21.581Z,-83
2023-04-22T13:04:50.439Z,-83
2023-04-22T13:07:19.928Z,-83
2023-04-22T13:09:48.788Z,-84
2023-04-22T13:12:17.619Z,-84
2023-04-22T13:14:51.224Z,-84
2023-04-22T13:17:21.407Z,-83
2023-04-22T13:19:51.755Z,-84
2023-04-22T13:22:23.105Z,-84
2023-04-22T13:24:52.867Z,-84
2023-04-22T13:27:23.454Z,-84
2023-04-22T13:29:54.001Z,-84
2023-04-22T13:32:23.010Z,-84
2023-04-22T13:34:51.885Z,-84
2023-04-22T13:37:21.515Z,-84
2023-04-22T13:39:50.652Z,-83
2023-04-22T13:42:19.766Z,-84
2023-04-22T13:44:48.515Z,-84
2023-04-22T13:47:18.728Z,-83
2023-04-22T13:49:47.597Z,-85
2023-04-22T13:52:16.319Z,-85
2023-04-22T13:54:44.789Z,-85
2023-04-22T13:57:13.521Z,-84
2023-04-22T13:59:43.180Z,-83
2023-04-22T14:02:11.907Z,-83
2023-04-22T14:04:42.453Z,-83
2023-04-22T14:07:11.888Z,-83
2023-04-22T14:09:40.632Z,-84
2023-04-22T14:12:13.583Z,-83
2023-04-22T14:14:42.603Z,-83
2023-04-22T14:17:11.819Z,-83
2023-04-22T14:19:42.549Z,-83
2023-04-22T14:22:11.614Z,-83
2023-04-22T14:24:40.176Z,-84
2023-04-22T14:27:08.965Z,-84
2023-04-22T14:29:38.838Z,-84
2023-04-22T14:32:08.117Z,-83
2023-04-22T14:34:37.747Z,-84
2023-04-22T14:37:09.263Z,-84
2023-04-22T14:39:39.836Z,-84
2023-04-22T14:42:08.922Z,-84
2023-04-22T14:44:37.871Z,-84
2023-04-22T14:47:07.937Z,-83
2023-04-22T14:49:37.228Z,-83
2023-04-22T14:52:07.974Z,-84
2023-04-22T14:54:36.702Z,-83
2023-04-22T14:57:05.688Z,-83
2023-04-22T14:59:34.778Z,-84
2023-04-22T15:02:03.987Z,-84
2023-04-22T15:04:33.060Z,-83
2023-04-22T15:07:09.768Z,-86
2023-04-22T15:09:41.764Z,-83
2023-04-22T15:12:10.623Z,-84
2023-04-22T15:14:39.467Z,-84
2023-04-22T15:17:10.704Z,-83
2023-04-22T15:19:40.126Z,-84
2023-04-22T15:22:08.797Z,-84
2023-04-22T15:24:37.595Z,-83
2023-04-22T15:27:08.525Z,-84
2023-04-22T15:29:37.115Z,-83
2023-04-22T15:32:07.170Z,-84
2023-04-22T15:34:35.657Z,-84
2023-04-22T15:37:04.866Z,-84
2023-04-22T15:39:35.470Z,-84
2023-04-22T15:42:05.212Z,-84
2023-04-22T15:44:35.479Z,-84
2023-04-22T15:47:06.259Z,-84
2023-04-22T15:49:38.893Z,-83
2023-04-22T15:52:08.097Z,-83
2023-04-22T15:54:37.258Z,-84
2023-04-22T15:57:06.115Z,-83
2023-04-22T15:59:37.678Z,-84
2023-04-22T16:02:10.809Z,-83
2023-04-22T16:04:43.730Z,-83
2023-04-22T16:07:14.400Z,-84
2023-04-22T16:09:43.666Z,-84
2023-04-22T16:12:13.831Z,-84
2023-04-22T16:14:46.526Z,-82
2023-04-22T16:17:15.464Z,-83
2023-04-22T16:19:44.688Z,-84
2023-04-22T16:22:14.854Z,-82
2023-04-22T16:24:44.328Z,-83
2023-04-22T16:27:17.052Z,-83
2023-04-22T16:29:49.906Z,-83
2023-04-22T16:32:18.680Z,-83
2023-04-22T16:34:47.616Z,-83
2023-04-22T16:37:16.952Z,-83
2023-04-22T16:39:48.294Z,-84
2023-04-22T16:42:17.223Z,-83
2023-04-22T16:44:47.568Z,-84
2023-04-22T16:47:16.874Z,-84
2023-04-22T16:49:48.227Z,-84
2023-04-22T16:52:17.002Z,-84
2023-04-22T16:54:46.081Z,-84
2023-04-22T16:57:14.771Z,-84
2023-04-22T16:59:43.242Z,-84
2023-04-22T17:02:13.624Z,-84
2023-04-22T17:04:42.414Z,-84
2023-04-22T17:07:12.785Z,-84
2023-04-22T17:09:42.932Z,-84
2023-04-22T17:12:13.640Z,-83
2023-04-22T17:14:43.239Z,-83
2023-04-22T17:17:13.978Z,-84
2023-04-22T17:19:44.889Z,-83
2023-04-22T17:22:16.051Z,-84
2023-04-22T17:24:45.363Z,-83
2023-04-22T17:27:16.727Z,-83
2023-04-22T17:29:45.318Z,-83
2023-04-22T17:32:18.397Z,-84
2023-04-22T17:34:48.595Z,-84
2023-04-22T17:37:21.182Z,-84
2023-04-22T17:39:50.629Z,-84
2023-04-22T17:42:21.056Z,-84
2023-04-22T17:44:51.027Z,-85
2023-04-22T17:47:22.828Z,-85
2023-04-22T17:49:51.778Z,-85
2023-04-22T17:52:23.059Z,-84
2023-04-22T17:54:53.944Z,-84
2023-04-22T17:57:23.536Z,-84
2023-04-22T17:59:54.446Z,-84
2023-04-22T18:06:34.186Z,-85
2023-04-22T18:09:02.841Z,-84
2023-04-22T18:11:31.449Z,-84
2023-04-22T18:14:00.775Z,-85
2023-04-22T18:16:29.633Z,-84
2023-04-22T18:18:59.147Z,-84
2023-04-22T18:21:33.644Z,-84
2023-04-22T18:24:04.118Z,-83
2023-04-22T18:26:32.987Z,-83
2023-04-22T18:29:01.543Z,-84
2023-04-22T18:31:31.230Z,-84
2023-04-22T18:33:59.868Z,-84
2023-04-22T18:37:06.740Z,-83
2023-04-22T18:40:00.442Z,-84
2023-04-22T18:42:33.158Z,-83
2023-04-22T18:45:04.771Z,-83
2023-04-22T18:47:34.147Z,-84
2023-04-22T18:50:02.696Z,-84
2023-04-22T18:52:34.233Z,-84
2023-04-22T18:55:06.951Z,-83
2023-04-22T18:57:35.978Z,-84
2023-04-22T19:00:10.558Z,-84
2023-04-22T19:02:42.080Z,-84
2023-04-22T19:05:13.833Z,-84
2023-04-22T19:07:45.299Z,-84
2023-04-22T19:10:14.453Z,-84
2023-04-22T19:12:43.343Z,-85
2023-04-22T19:15:13.111Z,-84
2023-04-22T19:17:43.987Z,-85
2023-04-22T19:20:13.896Z,-84
2023-04-22T19:22:45.201Z,-85
2023-04-22T19:25:14.108Z,-85
2023-04-22T19:27:43.653Z,-85
2023-04-22T19:30:14.881Z,-84
2023-04-22T19:32:43.686Z,-85
2023-04-22T19:35:16.399Z,-83
2023-04-22T19:37:47.028Z,-85
2023-04-22T19:40:18.575Z,-84
2023-04-22T19:42:47.756Z,-85
2023-04-22T19:45:16.549Z,-85
2023-04-22T19:47:54.030Z,-85
2023-04-22T19:50:25.254Z,-86
2023-04-22T19:53:06.531Z,-86
2023-04-22T19:55:36.376Z,-85
2023-04-22T19:58:05.474Z,-85
2023-04-22T20:00:40.824Z,-86
2023-04-22T20:03:13.666Z,-84
2023-04-22T20:05:46.814Z,-85
2023-04-22T20:08:22.237Z,-84
2023-04-22T20:10:52.851Z,-85
2023-04-22T20:13:22.710Z,-85
2023-04-22T20:15:53.135Z,-85
2023-04-22T20:18:23.152Z,-85
2023-04-22T20:20:58.175Z,-85
2023-04-22T20:23:30.391Z,-85
2023-04-22T20:26:01.653Z,-84
2023-04-22T20:28:48.668Z,-84
2023-04-22T20:31:23.002Z,-85
2023-04-22T20:33:52.421Z,-85
2023-04-22T20:36:22.615Z,-85
2023-04-22T20:38:58.380Z,-84
2023-04-22T20:41:28.328Z,-84
2023-04-22T20:43:58.128Z,-84
2023-04-22T20:46:27.008Z,-84
2023-04-22T20:48:55.642Z,-84
2023-04-22T20:51:24.201Z,-84
2023-04-22T20:53:55.186Z,-84
2023-04-22T20:56:23.883Z,-84
2023-04-22T20:58:52.566Z,-85
2023-04-22T21:01:21.196Z,-84
2023-04-22T21:03:54.413Z,-84
2023-04-22T21:06:23.828Z,-84
2023-04-22T21:08:56.211Z,-85
2023-04-22T21:11:26.346Z,-84
2023-04-22T21:13:55.827Z,-84
2023-04-22T21:16:29.867Z,-84
2023-04-22T21:19:04.024Z,-85
2023-04-22T21:21:35.473Z,-85
2023-04-22T21:24:07.042Z,-84
2023-04-22T21:26:40.197Z,-85
2023-04-22T21:29:09.387Z,-84
2023-04-22T21:31:38.194Z,-85
2023-04-22T21:34:08.663Z,-84
2023-04-22T21:36:37.457Z,-85
2023-04-22T21:39:08.574Z,-85
2023-04-22T21:41:37.220Z,-85
2023-04-22T21:44:07.155Z,-85
2023-04-22T21:46:36.256Z,-85
2023-04-22T21:49:05.455Z,-85
2023-04-22T21:51:35.308Z,-85
2023-04-22T21:54:04.027Z,-85
2023-04-22T21:56:36.095Z,-85
2023-04-22T21:59:04.663Z,-85
2023-04-22T22:01:33.264Z,-85
2023-04-22T22:04:02.366Z,-85
2023-04-22T22:06:33.469Z,-86
2023-04-22T22:09:02.069Z,-85
2023-04-22T22:11:33.183Z,-85
2023-04-22T22:14:02.244Z,-86
2023-04-22T22:16:34.896Z,-87
2023-04-22T22:19:06.496Z,-86
2023-04-22T22:21:35.170Z,-85
2023-04-22T22:24:03.907Z,-86
2023-04-22T22:26:36.368Z,-86
2023-04-22T22:29:04.909Z,-85
2023-04-22T22:31:33.491Z,-86
2023-04-22T22:34:03.238Z,-85
2023-04-22T22:36:32.840Z,-85
2023-04-22T22:39:01.745Z,-85
2023-04-22T22:41:32.886Z,-86
2023-04-22T22:44:03.755Z,-86
2023-04-22T22:46:32.519Z,-84
2023-04-22T22:49:01.853Z,-84
2023-04-22T22:51:30.578Z,-84
2023-04-22T22:53:59.448Z,-84
2023-04-22T22:56:28.000Z,-84
2023-04-22T22:58:56.529Z,-84
2023-04-22T23:01:27.165Z,-84
2023-04-22T23:03:56.161Z,-84
2023-04-22T23:06:28.344Z,-84
2023-04-22T23:08:58.380Z,-85
2023-04-22T23:11:27.329Z,-84
2023-04-22T23:13:56.351Z,-84
2023-04-22T23:16:27.585Z,-85
2023-04-22T23:19:00.392Z,-85
2023-04-22T23:21:31.615Z,-85
2023-04-22T23:24:02.326Z,-85
2023-04-22T23:26:32.669Z,-85
2023-04-22T23:29:01.811Z,-84
2023-04-22T23:31:36.260Z,-84
2023-04-22T23:34:07.165Z,-85
2023-04-22T23:36:38.823Z,-84
2023-04-22T23:39:10.809Z,-84
2023-04-22T23:41:41.986Z,-84
2023-04-22T23:44:12.001Z,-84
2023-04-22T23:46:49.173Z,-84
2023-04-22T23:49:29.317Z,-84
2023-04-22T23:54:50.074Z,-83
2023-04-22T23:57:21.201Z,-83
2023-04-22T23:59:51.299Z,-83
